Time;durP1;ratioP1;P1;durP2;ratioP2;P2;SDS_P1;SDS_P2;PMS_P1;PMS_P2;Temp;Humidity;BMP_temperature;BMP_pressure;BME280_temperature;BME280_humidity;BME280_pressure;Samples;Min_cycle;Max_cycle;Signal;HPM_P1;HPM_P2
2023/04/24 00:01:50;;;;;;;0.98;0.60;;;;;;;;;;5073810;28;20379;-80
2023/04/24 00:04:16;;;;;;;1.55;0.70;;;;;;;;;;5073696;28;20404;-80
2023/04/24 00:06:43;;;;;;;1.10;0.65;;;;;;;;;;5073670;28;20380;-80
2023/04/24 00:09:09;;;;;;;1.50;0.70;;;;;;;;;;5068730;28;20881;-80
2023/04/24 00:11:36;;;;;;;0.95;0.70;;;;;;;;;;5073549;28;20391;-80
2023/04/24 00:14:02;;;;;;;1.20;0.70;;;;;;;;;;5072999;28;20387;-80
2023/04/24 00:16:28;;;;;;;1.13;0.70;;;;;;;;;;5073630;28;20478;-80
2023/04/24 00:18:54;;;;;;;0.52;0.52;;;;;;;;;;5073445;28;20393;-80
2023/04/24 00:21:21;;;;;;;2.58;0.82;;;;;;;;;;5072413;28;20466;-80
2023/04/24 00:23:47;;;;;;;1.15;0.77;;;;;;;;;;5073232;28;20375;-80
2023/04/24 00:26:13;;;;;;;0.85;0.73;;;;;;;;;;5073278;28;20437;-80
2023/04/24 00:28:39;;;;;;;1.40;0.90;;;;;;;;;;5072184;28;20384;-80
2023/04/24 00:31:05;;;;;;;1.20;0.80;;;;;;;;;;5073300;28;20780;-80
2023/04/24 00:33:31;;;;;;;1.58;1.02;;;;;;;;;;5072967;28;20380;-80
2023/04/24 00:35:57;;;;;;;1.23;0.90;;;;;;;;;;5073266;28;20375;-80
2023/04/24 00:38:23;;;;;;;1.25;1.10;;;;;;;;;;5073201;28;20912;-80
2023/04/24 00:40:53;;;;;;;1.13;0.90;;;;;;;;;;5073201;28;20404;-80
2023/04/24 00:43:19;;;;;;;1.25;0.90;;;;;;;;;;5059272;28;20415;-80
2023/04/24 00:45:46;;;;;;;1.40;0.70;;;;;;;;;;5072906;28;20482;-80
2023/04/24 00:48:12;;;;;;;0.63;0.63;;;;;;;;;;5072874;28;20380;-80
2023/04/24 00:50:39;;;;;;;0.70;0.60;;;;;;;;;;5072995;28;20872;-80
2023/04/24 00:53:05;;;;;;;1.17;0.68;;;;;;;;;;5072828;28;20849;-80
2023/04/24 00:55:31;;;;;;;0.70;0.60;;;;;;;;;;5072822;28;20425;-80
2023/04/24 00:57:57;;;;;;;0.67;0.60;;;;;;;;;;5072692;28;20376;-80
2023/04/24 01:00:23;;;;;;;0.60;0.50;;;;;;;;;;5072523;28;20479;-80
2023/04/24 01:02:49;;;;;;;1.35;0.50;;;;;;;;;;5072573;28;21142;-80
2023/04/24 01:05:17;;;;;;;1.00;0.50;;;;;;;;;;5072220;28;20408;-80
2023/04/24 01:07:45;;;;;;;0.50;0.50;;;;;;;;;;5072666;28;20730;-80
2023/04/24 01:10:11;;;;;;;1.30;0.50;;;;;;;;;;5072482;28;20377;-80
2023/04/24 01:12:37;;;;;;;1.08;0.60;;;;;;;;;;5072588;28;20375;-81
2023/04/24 01:15:04;;;;;;;1.10;0.60;;;;;;;;;;5072242;28;20497;-80
2023/04/24 01:17:31;;;;;;;1.05;0.80;;;;;;;;;;5072465;28;20518;-80
2023/04/24 01:19:57;;;;;;;1.07;0.83;;;;;;;;;;5072317;28;20383;-80
2023/04/24 01:22:23;;;;;;;1.60;0.80;;;;;;;;;;5070897;28;20379;-80
2023/04/24 01:24:49;;;;;;;1.40;0.80;;;;;;;;;;5072013;28;20400;-80
2023/04/24 01:27:15;;;;;;;2.13;1.20;;;;;;;;;;5072103;28;20382;-80
2023/04/24 01:29:41;;;;;;;1.65;1.20;;;;;;;;;;5072094;28;20376;-80
2023/04/24 01:32:07;;;;;;;1.35;1.10;;;;;;;;;;5072058;28;20402;-80
2023/04/24 01:34:34;;;;;;;1.33;1.13;;;;;;;;;;5071659;28;20915;-80
2023/04/24 01:37:00;;;;;;;1.08;0.88;;;;;;;;;;5070644;28;20380;-80
2023/04/24 01:39:28;;;;;;;1.27;0.90;;;;;;;;;;5071900;28;20416;-80
2023/04/24 01:41:54;;;;;;;1.20;0.70;;;;;;;;;;5071963;28;20419;-80
2023/04/24 01:44:20;;;;;;;1.55;0.70;;;;;;;;;;5071614;28;20490;-80
2023/04/24 01:46:46;;;;;;;1.10;0.80;;;;;;;;;;5071835;28;20860;-80
2023/04/24 01:49:13;;;;;;;1.55;0.70;;;;;;;;;;5071794;28;20376;-80
2023/04/24 01:51:39;;;;;;;1.10;0.70;;;;;;;;;;5071760;28;20387;-80
2023/04/24 01:54:05;;;;;;;1.80;0.80;;;;;;;;;;5071699;28;20434;-80
2023/04/24 01:56:33;;;;;;;0.82;0.70;;;;;;;;;;5071457;28;20395;-80
2023/04/24 01:59:00;;;;;;;1.23;0.80;;;;;;;;;;5071405;28;20430;-80
2023/04/24 02:01:26;;;;;;;0.73;0.57;;;;;;;;;;5071520;28;20703;-80
2023/04/24 02:03:52;;;;;;;0.60;0.60;;;;;;;;;;5071360;28;20368;-80
2023/04/24 02:06:18;;;;;;;0.77;0.68;;;;;;;;;;5071255;28;20379;-79
2023/04/24 02:08:44;;;;;;;1.02;0.73;;;;;;;;;;5069726;28;20379;-80
2023/04/24 02:11:10;;;;;;;0.73;0.50;;;;;;;;;;5066303;28;20920;-80
2023/04/24 02:13:36;;;;;;;0.90;0.60;;;;;;;;;;5057960;28;20391;-80
2023/04/24 02:16:02;;;;;;;0.52;0.50;;;;;;;;;;5071383;28;20522;-80
2023/04/24 02:18:28;;;;;;;0.90;0.50;;;;;;;;;;5071320;28;20512;-80
2023/04/24 02:20:54;;;;;;;0.40;0.40;;;;;;;;;;5071242;28;20733;-80
2023/04/24 02:23:20;;;;;;;1.05;0.40;;;;;;;;;;5071391;28;20380;-80
2023/04/24 02:25:46;;;;;;;0.70;0.50;;;;;;;;;;5070817;28;20907;-80
2023/04/24 02:28:12;;;;;;;0.70;0.40;;;;;;;;;;5071565;28;20386;-80
2023/04/24 02:30:38;;;;;;;1.50;0.50;;;;;;;;;;5071103;28;20375;-80
2023/04/24 02:33:04;;;;;;;0.90;0.50;;;;;;;;;;5071174;28;20380;-80
2023/04/24 02:35:30;;;;;;;0.80;0.50;;;;;;;;;;5071025;28;20520;-80
2023/04/24 02:37:56;;;;;;;0.70;0.40;;;;;;;;;;5071137;28;20417;-80
2023/04/24 02:40:22;;;;;;;0.70;0.47;;;;;;;;;;5071187;28;20398;-80
2023/04/24 02:42:48;;;;;;;1.52;0.43;;;;;;;;;;5071327;28;20376;-80
2023/04/24 02:45:14;;;;;;;0.68;0.40;;;;;;;;;;5070974;28;20495;-79
2023/04/24 02:47:40;;;;;;;0.55;0.30;;;;;;;;;;5071117;28;20388;-80
2023/04/24 02:50:09;;;;;;;1.00;0.40;;;;;;;;;;5071066;28;20959;-80
2023/04/24 02:52:35;;;;;;;0.52;0.38;;;;;;;;;;5071118;28;21043;-80
2023/04/24 02:55:01;;;;;;;0.70;0.30;;;;;;;;;;5070588;28;20384;-80
2023/04/24 02:57:27;;;;;;;1.35;0.35;;;;;;;;;;5070975;28;20395;-79
2023/04/24 02:59:53;;;;;;;0.25;0.25;;;;;;;;;;5070807;28;20463;-80
2023/04/24 03:02:20;;;;;;;0.50;0.35;;;;;;;;;;5071041;28;20734;-80
2023/04/24 03:04:48;;;;;;;0.70;0.40;;;;;;;;;;5070506;28;20404;-80
2023/04/24 03:07:14;;;;;;;0.85;0.50;;;;;;;;;;5070963;28;20376;-80
2023/04/24 03:09:40;;;;;;;0.60;0.47;;;;;;;;;;5070978;28;20387;-80
2023/04/24 03:12:06;;;;;;;0.55;0.40;;;;;;;;;;5070726;28;20376;-79
2023/04/24 03:14:32;;;;;;;1.33;0.50;;;;;;;;;;5070821;28;20395;-80
2023/04/24 03:16:58;;;;;;;0.65;0.50;;;;;;;;;;5072006;28;20372;-79
2023/04/24 03:19:24;;;;;;;1.20;0.55;;;;;;;;;;5070350;28;20457;-80
2023/04/24 03:21:50;;;;;;;0.70;0.40;;;;;;;;;;5074216;28;20379;-80
2023/04/24 03:24:16;;;;;;;0.43;0.40;;;;;;;;;;5069440;28;20403;-80
2023/04/24 03:26:42;;;;;;;0.60;0.40;;;;;;;;;;5071767;28;21077;-80
2023/04/24 03:29:08;;;;;;;1.13;0.40;;;;;;;;;;5074431;28;20372;-80
2023/04/24 03:31:34;;;;;;;1.65;0.50;;;;;;;;;;5074390;28;20781;-78
2023/04/24 03:34:00;;;;;;;0.55;0.38;;;;;;;;;;5073987;28;20400;-79
2023/04/24 03:36:27;;;;;;;1.00;0.50;;;;;;;;;;5073605;28;20380;-80
2023/04/24 03:38:53;;;;;;;0.35;0.32;;;;;;;;;;5073723;28;20467;-79
2023/04/24 03:41:19;;;;;;;0.95;0.40;;;;;;;;;;5073501;28;20463;-80
2023/04/24 03:43:45;;;;;;;0.60;0.40;;;;;;;;;;5073584;28;20379;-79
2023/04/24 03:46:11;;;;;;;0.47;0.40;;;;;;;;;;5073234;28;20400;-79
2023/04/24 03:48:37;;;;;;;0.88;0.40;;;;;;;;;;5072608;28;20853;-80
2023/04/24 03:51:03;;;;;;;0.38;0.38;;;;;;;;;;5072458;28;20418;-80
2023/04/24 03:53:29;;;;;;;0.70;0.40;;;;;;;;;;5070692;28;21159;-80
2023/04/24 03:55:55;;;;;;;0.68;0.40;;;;;;;;;;5073981;28;20426;-80
2023/04/24 03:58:21;;;;;;;0.60;0.30;;;;;;;;;;5073868;28;20741;-80
2023/04/24 04:00:47;;;;;;;0.50;0.40;;;;;;;;;;5074023;28;20383;-80
2023/04/24 04:03:14;;;;;;;0.80;0.47;;;;;;;;;;5072544;28;20395;-80
2023/04/24 04:05:40;;;;;;;0.90;0.40;;;;;;;;;;5070960;28;20399;-80
2023/04/24 04:08:06;;;;;;;0.90;0.43;;;;;;;;;;5073818;28;20399;-80
2023/04/24 04:10:32;;;;;;;1.20;0.40;;;;;;;;;;5073497;28;20376;-80
2023/04/24 04:12:58;;;;;;;1.00;0.40;;;;;;;;;;5073345;28;20853;-80
2023/04/24 04:15:24;;;;;;;0.50;0.50;;;;;;;;;;5073388;28;20390;-81
2023/04/24 04:17:50;;;;;;;0.57;0.40;;;;;;;;;;5073647;28;20372;-80
2023/04/24 04:20:16;;;;;;;0.80;0.30;;;;;;;;;;5073440;28;20376;-80
2023/04/24 04:22:42;;;;;;;0.55;0.40;;;;;;;;;;5071595;28;20390;-80
2023/04/24 04:25:08;;;;;;;0.65;0.30;;;;;;;;;;5073278;28;20773;-80
2023/04/24 04:27:35;;;;;;;0.30;0.25;;;;;;;;;;5072897;28;20817;-80
2023/04/24 04:30:04;;;;;;;0.40;0.30;;;;;;;;;;5073413;28;20453;-80
2023/04/24 04:32:30;;;;;;;0.68;0.38;;;;;;;;;;5073098;28;20384;-80
2023/04/24 04:34:56;;;;;;;0.50;0.32;;;;;;;;;;5073233;28;20412;-80
2023/04/24 04:37:22;;;;;;;0.40;0.30;;;;;;;;;;5073267;28;20384;-80
2023/04/24 04:39:48;;;;;;;0.80;0.40;;;;;;;;;;5073175;28;20437;-80
2023/04/24 04:42:15;;;;;;;0.90;0.35;;;;;;;;;;5073137;28;20460;-80
2023/04/24 04:44:41;;;;;;;1.20;0.53;;;;;;;;;;5072849;28;20473;-78
2023/04/24 04:47:08;;;;;;;1.33;0.40;;;;;;;;;;5072982;28;20376;-80
2023/04/24 04:49:34;;;;;;;0.60;0.40;;;;;;;;;;5072645;28;20391;-80
2023/04/24 04:52:00;;;;;;;1.55;0.50;;;;;;;;;;5073119;28;20391;-80
2023/04/24 04:54:26;;;;;;;0.35;0.35;;;;;;;;;;5072783;28;20379;-80
2023/04/24 04:56:52;;;;;;;0.83;0.40;;;;;;;;;;5072381;28;20759;-80
2023/04/24 04:59:18;;;;;;;4.00;0.68;;;;;;;;;;5072892;28;20383;-80
2023/04/24 05:01:44;;;;;;;0.98;0.60;;;;;;;;;;5072691;28;20372;-80
2023/04/24 05:04:10;;;;;;;1.50;0.40;;;;;;;;;;5071767;28;20391;-81
2023/04/24 05:06:36;;;;;;;1.00;0.40;;;;;;;;;;5071772;28;20391;-81
2023/04/24 05:09:03;;;;;;;0.60;0.50;;;;;;;;;;5073181;28;20372;-81
2023/04/24 05:11:29;;;;;;;0.80;0.60;;;;;;;;;;5072357;28;20379;-80
2023/04/24 05:13:55;;;;;;;1.10;0.60;;;;;;;;;;5072586;28;20376;-78
2023/04/24 05:16:21;;;;;;;0.85;0.70;;;;;;;;;;5072210;28;20864;-80
2023/04/24 05:18:47;;;;;;;0.98;0.60;;;;;;;;;;5071662;28;20400;-80
2023/04/24 05:21:13;;;;;;;1.30;0.55;;;;;;;;;;5071769;28;20410;-80
2023/04/24 05:23:40;;;;;;;1.00;0.60;;;;;;;;;;5071688;28;20383;-79
2023/04/24 05:26:06;;;;;;;0.88;0.70;;;;;;;;;;5071648;28;20461;-80
2023/04/24 05:28:32;;;;;;;0.85;0.60;;;;;;;;;;5071495;28;20394;-81
2023/04/24 05:30:59;;;;;;;1.55;0.70;;;;;;;;;;5071046;28;20383;-81
2023/04/24 05:33:25;;;;;;;0.93;0.50;;;;;;;;;;5070963;28;20429;-81
2023/04/24 05:35:51;;;;;;;1.10;0.47;;;;;;;;;;5071284;28;20444;-81
2023/04/24 05:38:19;;;;;;;0.65;0.50;;;;;;;;;;5069189;28;20865;-81
2023/04/24 05:40:45;;;;;;;1.17;0.50;;;;;;;;;;5071138;28;20391;-80
2023/04/24 05:43:11;;;;;;;0.90;0.50;;;;;;;;;;5071807;28;20853;-81
2023/04/24 05:45:40;;;;;;;0.60;0.60;;;;;;;;;;5070894;28;20428;-80
2023/04/24 05:48:06;;;;;;;1.25;0.60;;;;;;;;;;5071003;28;20384;-80
2023/04/24 05:50:32;;;;;;;0.65;0.55;;;;;;;;;;5070852;28;20387;-80
2023/04/24 05:52:58;;;;;;;1.17;0.88;;;;;;;;;;5071328;28;20372;-80
2023/04/24 05:55:27;;;;;;;2.20;1.00;;;;;;;;;;5071414;28;20387;-80
2023/04/24 05:57:53;;;;;;;0.65;0.50;;;;;;;;;;5071490;28;20407;-80
2023/04/24 06:00:20;;;;;;;0.80;0.60;;;;;;;;;;5071615;28;20926;-80
2023/04/24 06:02:47;;;;;;;2.08;0.70;;;;;;;;;;5071949;28;20396;-80
2023/04/24 06:05:12;;;;;;;0.77;0.77;;;;;;;;;;5071245;28;20968;-80
2023/04/24 06:07:38;;;;;;;0.77;0.70;;;;;;;;;;5071611;28;20462;-81
2023/04/24 06:10:05;;;;;;;1.17;0.85;;;;;;;;;;5070411;28;20395;-80
2023/04/24 06:12:31;;;;;;;1.65;0.90;;;;;;;;;;5071462;28;20379;-81
2023/04/24 06:14:57;;;;;;;0.90;0.80;;;;;;;;;;5070123;28;20394;-81
2023/04/24 06:17:23;;;;;;;1.65;0.80;;;;;;;;;;5071349;28;20398;-81
2023/04/24 06:19:49;;;;;;;1.10;0.80;;;;;;;;;;5072459;28;20414;-81
2023/04/24 06:22:15;;;;;;;1.40;1.00;;;;;;;;;;5071319;28;20379;-81
2023/04/24 06:24:41;;;;;;;2.60;1.00;;;;;;;;;;5071338;28;20423;-81
2023/04/24 06:27:07;;;;;;;1.23;1.00;;;;;;;;;;5070205;28;20410;-81
2023/04/24 06:29:33;;;;;;;1.73;1.00;;;;;;;;;;5069383;28;20376;-81
2023/04/24 06:31:59;;;;;;;1.00;0.90;;;;;;;;;;5070683;28;20383;-81
2023/04/24 06:34:26;;;;;;;1.42;1.00;;;;;;;;;;5070567;28;20769;-81
2023/04/24 06:36:52;;;;;;;1.90;1.20;;;;;;;;;;5071077;28;20394;-82
2023/04/24 06:39:18;;;;;;;2.17;1.30;;;;;;;;;;5071090;28;20438;-81
2023/04/24 06:41:44;;;;;;;1.77;1.10;;;;;;;;;;5071116;28;20900;-81
2023/04/24 06:44:10;;;;;;;1.67;1.33;;;;;;;;;;5070976;28;20388;-81
2023/04/24 06:46:36;;;;;;;2.47;1.13;;;;;;;;;;5071236;28;20384;-81
2023/04/24 06:49:01;;;;;;;2.67;1.60;;;;;;;;;;5071101;28;20876;-81
2023/04/24 06:51:28;;;;;;;1.63;1.15;;;;;;;;;;5073329;28;20380;-81
2023/04/24 06:53:55;;;;;;;1.60;1.20;;;;;;;;;;5074972;28;20426;-81
2023/04/24 06:56:22;;;;;;;3.83;1.33;;;;;;;;;;5074965;28;20718;-80
2023/04/24 06:58:48;;;;;;;2.58;1.42;;;;;;;;;;5075127;28;20423;-82
2023/04/24 07:01:14;;;;;;;2.22;1.38;;;;;;;;;;5075057;28;20379;-81
2023/04/24 07:03:40;;;;;;;2.20;1.30;;;;;;;;;;5074915;28;20376;-80
2023/04/24 07:06:06;;;;;;;2.00;1.50;;;;;;;;;;5074810;28;20396;-80
2023/04/24 07:08:32;;;;;;;1.92;1.45;;;;;;;;;;5075108;28;20766;-81
2023/04/24 07:10:59;;;;;;;1.60;1.50;;;;;;;;;;5074919;28;20376;-80
2023/04/24 07:13:25;;;;;;;3.97;1.50;;;;;;;;;;5074670;28;20375;-80
2023/04/24 07:15:53;;;;;;;1.70;1.30;;;;;;;;;;5074708;28;20379;-80
2023/04/24 07:18:19;;;;;;;1.77;1.10;;;;;;;;;;5074606;28;20391;-80
2023/04/24 07:20:45;;;;;;;1.30;1.20;;;;;;;;;;5074650;28;20797;-80
2023/04/24 07:23:11;;;;;;;2.22;1.20;;;;;;;;;;5074594;28;20379;-80
2023/04/24 07:25:38;;;;;;;1.52;1.30;;;;;;;;;;5074251;28;20406;-80
2023/04/24 07:28:04;;;;;;;4.22;1.58;;;;;;;;;;5074509;28;20387;-80
2023/04/24 07:30:32;;;;;;;2.88;1.40;;;;;;;;;;5074353;28;20483;-80
2023/04/24 07:32:58;;;;;;;3.03;1.55;;;;;;;;;;5074339;28;20377;-80
2023/04/24 07:35:25;;;;;;;1.88;1.50;;;;;;;;;;5074139;28;20427;-80
2023/04/24 07:37:51;;;;;;;2.53;1.20;;;;;;;;;;5074521;28;20748;-81
2023/04/24 07:40:17;;;;;;;3.08;1.75;;;;;;;;;;5074324;28;20387;-82
2023/04/24 07:42:43;;;;;;;1.55;1.45;;;;;;;;;;5074095;28;20383;-81
2023/04/24 07:45:09;;;;;;;2.10;1.33;;;;;;;;;;5074054;28;20430;-82
2023/04/24 07:47:37;;;;;;;3.80;1.20;;;;;;;;;;5074257;28;20386;-81
2023/04/24 07:50:03;;;;;;;2.15;1.50;;;;;;;;;;5073691;28;20737;-81
2023/04/24 07:52:30;;;;;;;2.58;1.63;;;;;;;;;;5074195;28;20384;-82
2023/04/24 07:55:00;;;;;;;2.10;1.33;;;;;;;;;;5073383;28;20466;-82
2023/04/24 07:57:26;;;;;;;1.13;0.90;;;;;;;;;;5073240;28;20384;-81
2023/04/24 07:59:52;;;;;;;1.00;0.90;;;;;;;;;;5073335;28;20384;-82
2023/04/24 08:02:18;;;;;;;1.73;0.95;;;;;;;;;;5073150;28;20410;-81
2023/04/24 08:04:44;;;;;;;1.98;0.90;;;;;;;;;;5072255;28;20412;-82
2023/04/24 08:07:12;;;;;;;0.93;0.82;;;;;;;;;;5073814;28;20391;-81
2023/04/24 08:09:38;;;;;;;1.20;0.80;;;;;;;;;;5073312;28;20380;-82
2023/04/24 08:12:04;;;;;;;1.35;1.00;;;;;;;;;;5073081;28;20387;-83
2023/04/24 08:14:30;;;;;;;1.10;0.80;;;;;;;;;;5072444;28;20482;-82
2023/04/24 08:16:57;;;;;;;1.48;0.70;;;;;;;;;;5070298;28;20395;-82
2023/04/24 08:19:23;;;;;;;2.50;0.90;;;;;;;;;;5073391;28;20461;-82
2023/04/24 08:21:49;;;;;;;0.90;0.70;;;;;;;;;;5073464;28;20869;-83
2023/04/24 08:24:15;;;;;;;0.70;0.70;;;;;;;;;;5073341;28;20387;-82
2023/04/24 08:26:41;;;;;;;0.85;0.75;;;;;;;;;;5073565;28;20388;-82
2023/04/24 08:29:07;;;;;;;0.97;0.90;;;;;;;;;;5073311;28;20899;-82
2023/04/24 08:31:33;;;;;;;1.33;0.90;;;;;;;;;;5073388;28;20380;-82
2023/04/24 08:33:59;;;;;;;2.45;0.70;;;;;;;;;;5070146;28;20849;-82
2023/04/24 08:36:26;;;;;;;1.05;0.70;;;;;;;;;;5072643;28;20517;-83
2023/04/24 08:38:52;;;;;;;1.27;0.70;;;;;;;;;;5073268;28;20399;-82
2023/04/24 08:41:18;;;;;;;1.17;0.70;;;;;;;;;;5073096;28;20379;-82
2023/04/24 08:43:46;;;;;;;1.70;0.70;;;;;;;;;;5073218;28;20384;-83
2023/04/24 08:46:13;;;;;;;1.20;0.75;;;;;;;;;;5072887;28;20411;-83
2023/04/24 08:48:40;;;;;;;0.80;0.80;;;;;;;;;;5072960;28;20441;-82
2023/04/24 08:51:09;;;;;;;1.20;0.90;;;;;;;;;;5072976;28;20372;-82
2023/04/24 08:53:36;;;;;;;1.73;0.77;;;;;;;;;;5072953;28;20454;-82
2023/04/24 08:56:02;;;;;;;1.23;0.97;;;;;;;;;;5072893;28;20522;-82
2023/04/24 08:58:28;;;;;;;0.90;0.80;;;;;;;;;;5072643;28;20430;-82
2023/04/24 09:00:55;;;;;;;1.83;1.20;;;;;;;;;;5071448;28;20917;-82
2023/04/24 09:03:21;;;;;;;2.65;1.50;;;;;;;;;;5072691;28;20388;-82
2023/04/24 09:05:49;;;;;;;2.63;1.00;;;;;;;;;;5072311;28;20403;-82
2023/04/24 09:08:16;;;;;;;1.92;1.00;;;;;;;;;;5072538;28;20390;-82
2023/04/24 09:10:43;;;;;;;2.05;1.10;;;;;;;;;;5072654;28;20737;-82
2023/04/24 09:13:10;;;;;;;1.67;1.20;;;;;;;;;;5072632;28;20379;-82
2023/04/24 09:15:36;;;;;;;1.95;1.00;;;;;;;;;;5071224;28;20899;-83
2023/04/24 09:18:02;;;;;;;1.67;1.00;;;;;;;;;;5072412;28;20861;-82
2023/04/24 09:20:28;;;;;;;1.40;1.00;;;;;;;;;;5072167;28;20376;-82
2023/04/24 09:22:55;;;;;;;2.95;1.00;;;;;;;;;;5072260;28;20397;-83
2023/04/24 09:25:21;;;;;;;1.65;1.15;;;;;;;;;;5071932;28;20406;-81
2023/04/24 09:27:47;;;;;;;3.10;1.20;;;;;;;;;;5072283;28;20422;-83
2023/04/24 09:30:14;;;;;;;1.45;1.10;;;;;;;;;;5072125;28;20384;-83
2023/04/24 09:32:41;;;;;;;3.22;1.20;;;;;;;;;;5072082;28;20868;-83
2023/04/24 09:35:10;;;;;;;1.95;1.10;;;;;;;;;;5071959;28;20411;-82
2023/04/24 09:37:37;;;;;;;1.40;1.00;;;;;;;;;;5071974;28;20392;-82
2023/04/24 09:40:14;;;;;;;1.90;1.02;;;;;;;;;;5071990;28;20436;-82
2023/04/24 09:42:43;;;;;;;2.95;0.93;;;;;;;;;;5071775;28;20404;-82
2023/04/24 09:45:11;;;;;;;1.33;1.00;;;;;;;;;;5071763;28;20402;-80
2023/04/24 09:47:37;;;;;;;2.33;0.83;;;;;;;;;;5071928;28;20452;-82
2023/04/24 09:50:10;;;;;;;2.55;1.08;;;;;;;;;;5070973;28;20459;-82
2023/04/24 09:52:37;;;;;;;1.17;0.90;;;;;;;;;;5070765;28;20382;-83
2023/04/24 09:55:10;;;;;;;2.38;1.10;;;;;;;;;;5070863;28;20418;-83
2023/04/24 09:57:47;;;;;;;1.88;1.20;;;;;;;;;;5071707;28;20408;-83
2023/04/24 10:00:13;;;;;;;2.22;0.93;;;;;;;;;;5071829;28;20730;-84
2023/04/24 10:02:39;;;;;;;1.33;1.00;;;;;;;;;;5071674;28;20387;-81
2023/04/24 10:05:05;;;;;;;2.85;1.20;;;;;;;;;;5071341;28;20395;-81
2023/04/24 10:07:33;;;;;;;1.63;1.00;;;;;;;;;;5071557;28;20445;-83
2023/04/24 10:10:00;;;;;;;2.80;1.10;;;;;;;;;;5063216;28;20379;-83
2023/04/24 10:12:27;;;;;;;3.95;1.08;;;;;;;;;;5071595;28;20892;-82
2023/04/24 10:14:53;;;;;;;1.30;0.90;;;;;;;;;;5071402;28;20379;-81
2023/04/24 10:17:20;;;;;;;2.22;1.10;;;;;;;;;;5071488;28;20376;-81
2023/04/24 10:19:47;;;;;;;1.27;1.00;;;;;;;;;;5071376;28;20775;-81
2023/04/24 10:22:16;;;;;;;2.00;1.30;;;;;;;;;;5070919;28;20406;-83
2023/04/24 10:24:43;;;;;;;1.77;1.02;;;;;;;;;;5071166;28;20426;-83
2023/04/24 10:27:09;;;;;;;2.38;0.95;;;;;;;;;;5070401;28;20472;-82
2023/04/24 10:29:36;;;;;;;1.93;1.20;;;;;;;;;;5071289;28;20382;-82
2023/04/24 10:32:02;;;;;;;1.42;1.02;;;;;;;;;;5070756;28;20415;-83
2023/04/24 10:34:28;;;;;;;1.33;0.90;;;;;;;;;;5072042;28;20500;-83
2023/04/24 10:36:56;;;;;;;2.00;1.05;;;;;;;;;;5067446;28;20441;-82
2023/04/24 10:39:22;;;;;;;1.30;1.02;;;;;;;;;;5070612;28;20383;-83
2023/04/24 10:41:51;;;;;;;1.48;1.00;;;;;;;;;;5070523;28;20386;-82
2023/04/24 10:44:17;;;;;;;2.45;1.10;;;;;;;;;;5067131;28;20384;-82
2023/04/24 10:46:44;;;;;;;2.10;1.10;;;;;;;;;;5070576;28;20380;-83
2023/04/24 10:49:11;;;;;;;1.27;1.10;;;;;;;;;;5071127;28;20383;-82
2023/04/24 10:51:46;;;;;;;1.33;1.08;;;;;;;;;;5070562;28;20380;-82
2023/04/24 10:54:51;;;;;;;2.30;1.10;;;;;;;;;;5070977;28;20382;-82
2023/04/24 10:57:22;;;;;;;2.00;0.98;;;;;;;;;;5008076;28;20901;-83
2023/04/24 11:00:09;;;;;;;3.15;1.20;;;;;;;;;;5009137;28;20385;-82
2023/04/24 11:02:38;;;;;;;1.33;1.00;;;;;;;;;;5008425;28;20400;-83
2023/04/24 11:05:05;;;;;;;1.63;1.10;;;;;;;;;;5008852;28;20948;-83
2023/04/24 11:07:51;;;;;;;1.25;0.88;;;;;;;;;;5008974;28;20397;-83
2023/04/24 11:10:26;;;;;;;2.60;0.95;;;;;;;;;;5008534;28;20466;-82
2023/04/24 11:12:52;;;;;;;2.30;1.00;;;;;;;;;;5008858;28;20395;-83
2023/04/24 11:15:19;;;;;;;1.80;0.98;;;;;;;;;;4992398;28;20886;-82
2023/04/24 11:17:46;;;;;;;2.45;0.90;;;;;;;;;;5008981;28;20396;-83
2023/04/24 11:20:16;;;;;;;2.25;1.13;;;;;;;;;;5008862;28;20389;-83
2023/04/24 11:22:42;;;;;;;2.03;0.80;;;;;;;;;;5008837;28;20744;-82
2023/04/24 11:25:11;;;;;;;1.45;0.85;;;;;;;;;;5008662;28;20528;-82
2023/04/24 11:27:45;;;;;;;2.25;0.90;;;;;;;;;;5029939;28;20940;-83
2023/04/24 11:30:12;;;;;;;1.80;1.02;;;;;;;;;;5070703;28;20425;-80
2023/04/24 11:32:41;;;;;;;2.42;0.88;;;;;;;;;;5069772;28;20372;-80
2023/04/24 11:35:10;;;;;;;1.65;1.00;;;;;;;;;;5070457;28;20742;-81
2023/04/24 11:37:37;;;;;;;1.40;1.00;;;;;;;;;;5070422;28;20391;-80
2023/04/24 11:40:05;;;;;;;2.08;1.10;;;;;;;;;;5073681;28;20380;-80
2023/04/24 11:42:41;;;;;;;1.08;0.90;;;;;;;;;;5074200;28;20379;-80
2023/04/24 11:45:14;;;;;;;2.13;1.00;;;;;;;;;;5073309;28;20908;-80
2023/04/24 11:47:40;;;;;;;1.20;0.98;;;;;;;;;;5074081;28;20441;-80
2023/04/24 11:50:07;;;;;;;3.40;1.00;;;;;;;;;;5073664;28;20425;-78
2023/04/24 11:52:37;;;;;;;1.20;0.90;;;;;;;;;;5073972;28;20885;-80
2023/04/24 11:55:03;;;;;;;2.00;0.90;;;;;;;;;;5073906;28;20376;-81
2023/04/24 11:57:33;;;;;;;1.35;0.80;;;;;;;;;;5073983;28;20448;-80
2023/04/24 12:00:00;;;;;;;2.67;1.10;;;;;;;;;;5073905;28;20382;-81
2023/04/24 12:02:26;;;;;;;1.73;1.00;;;;;;;;;;5073664;28;20387;-81
2023/04/24 12:04:56;;;;;;;1.87;1.00;;;;;;;;;;5073010;28;20495;-80
2023/04/24 12:07:23;;;;;;;3.55;1.10;;;;;;;;;;5071380;28;20385;-80
2023/04/24 12:09:55;;;;;;;2.05;0.93;;;;;;;;;;5072891;28;20384;-82
2023/04/24 12:12:25;;;;;;;3.00;0.85;;;;;;;;;;5073434;28;20398;-81
2023/04/24 12:14:54;;;;;;;1.73;0.98;;;;;;;;;;5073340;28;20722;-82
2023/04/24 12:17:30;;;;;;;2.72;1.02;;;;;;;;;;5059615;28;20375;-81
2023/04/24 12:20:00;;;;;;;1.30;0.85;;;;;;;;;;5073489;28;20849;-79
2023/04/24 12:22:26;;;;;;;1.50;1.00;;;;;;;;;;5073274;28;20383;-80
2023/04/24 12:24:57;;;;;;;1.20;0.95;;;;;;;;;;5073570;28;20743;-81
2023/04/24 12:27:23;;;;;;;1.60;1.00;;;;;;;;;;5073352;28;20379;-81
2023/04/24 12:30:12;;;;;;;2.55;1.10;;;;;;;;;;5073528;28;20376;-81
2023/04/24 12:32:41;;;;;;;2.00;1.05;;;;;;;;;;5072909;28;20739;-81
2023/04/24 12:35:07;;;;;;;3.10;1.23;;;;;;;;;;5061716;28;20403;-81
2023/04/24 12:37:36;;;;;;;1.75;0.98;;;;;;;;;;5073143;28;20387;-81
2023/04/24 12:40:03;;;;;;;1.58;0.80;;;;;;;;;;5073294;28;20382;-81
2023/04/24 12:42:30;;;;;;;1.60;0.90;;;;;;;;;;5073141;28;20891;-81
2023/04/24 12:44:58;;;;;;;2.17;0.90;;;;;;;;;;5072826;28;20400;-81
2023/04/24 12:47:24;;;;;;;2.35;1.00;;;;;;;;;;5073084;28;20383;-81
2023/04/24 12:49:52;;;;;;;1.52;0.80;;;;;;;;;;5072475;28;20383;-78
2023/04/24 12:52:19;;;;;;;2.67;0.90;;;;;;;;;;5068626;28;20412;-81
2023/04/24 12:54:45;;;;;;;1.50;1.00;;;;;;;;;;5069060;28;20490;-81
2023/04/24 12:57:11;;;;;;;1.48;1.10;;;;;;;;;;5073164;28;20463;-81
2023/04/24 12:59:38;;;;;;;2.80;1.00;;;;;;;;;;5072765;28;20380;-78
2023/04/24 13:02:05;;;;;;;1.88;1.00;;;;;;;;;;5072749;28;20383;-82
2023/04/24 13:04:31;;;;;;;1.48;1.08;;;;;;;;;;5072622;28;20376;-81
2023/04/24 13:06:57;;;;;;;1.30;0.90;;;;;;;;;;5072567;28;20379;-81
2023/04/24 13:09:23;;;;;;;2.38;1.17;;;;;;;;;;5072660;28;20733;-82
2023/04/24 13:11:50;;;;;;;1.60;1.00;;;;;;;;;;5072517;28;20551;-80
2023/04/24 13:14:16;;;;;;;1.77;0.80;;;;;;;;;;5072468;28;20437;-81
2023/04/24 13:16:42;;;;;;;1.55;0.90;;;;;;;;;;5072338;28;20383;-80
2023/04/24 13:19:08;;;;;;;2.97;0.90;;;;;;;;;;5072358;28;20383;-80
2023/04/24 13:21:34;;;;;;;1.40;0.98;;;;;;;;;;5072340;28;20988;-80
2023/04/24 13:24:00;;;;;;;2.40;1.10;;;;;;;;;;5072105;28;20380;-80
2023/04/24 13:26:26;;;;;;;2.53;0.90;;;;;;;;;;5072283;28;20404;-78
2023/04/24 13:28:52;;;;;;;1.20;0.90;;;;;;;;;;5072152;28;20375;-80
2023/04/24 13:31:18;;;;;;;2.90;0.90;;;;;;;;;;5072238;28;20376;-80
2023/04/24 13:33:44;;;;;;;1.40;0.77;;;;;;;;;;5071745;28;20422;-80
2023/04/24 13:36:10;;;;;;;1.52;1.02;;;;;;;;;;5071966;28;20376;-80
2023/04/24 13:38:36;;;;;;;2.08;0.93;;;;;;;;;;5094495;22;20863;-79
2023/04/24 13:41:02;;;;;;;1.80;1.10;;;;;;;;;;5033045;28;20377;-82
2023/04/24 13:43:28;;;;;;;3.00;1.10;;;;;;;;;;5033878;28;20937;-79
2023/04/24 13:45:54;;;;;;;1.65;0.90;;;;;;;;;;5033608;28;20405;-81
2023/04/24 13:48:20;;;;;;;2.00;0.82;;;;;;;;;;5051823;28;20377;-81
2023/04/24 13:50:48;;;;;;;1.73;0.97;;;;;;;;;;5052011;28;20382;-80
2023/04/24 13:53:14;;;;;;;2.28;0.98;;;;;;;;;;5051826;28;20428;-81
2023/04/24 13:55:40;;;;;;;2.20;0.80;;;;;;;;;;5051634;28;20382;-81
2023/04/24 13:58:07;;;;;;;1.83;0.80;;;;;;;;;;5051530;28;20384;-81
2023/04/24 14:00:33;;;;;;;1.90;0.90;;;;;;;;;;5050560;28;20374;-80
2023/04/24 14:02:59;;;;;;;2.28;0.98;;;;;;;;;;5048951;28;20867;-81
2023/04/24 14:05:25;;;;;;;1.58;1.05;;;;;;;;;;5032548;28;20401;-81
2023/04/24 14:07:51;;;;;;;1.92;1.05;;;;;;;;;;5051319;28;20386;-81
2023/04/24 14:10:17;;;;;;;2.17;1.10;;;;;;;;;;5051392;28;20518;-81
2023/04/24 14:12:43;;;;;;;1.45;1.00;;;;;;;;;;5051098;28;20377;-80
2023/04/24 14:15:10;;;;;;;2.03;0.80;;;;;;;;;;5051273;28;20377;-81
2023/04/24 14:17:36;;;;;;;0.90;0.80;;;;;;;;;;5051079;28;20392;-81
2023/04/24 14:20:04;;;;;;;1.33;0.90;;;;;;;;;;5051298;28;20393;-81
2023/04/24 14:22:30;;;;;;;1.33;0.93;;;;;;;;;;5051116;28;20909;-81
2023/04/24 14:24:56;;;;;;;1.73;0.77;;;;;;;;;;5051511;28;20495;-81
2023/04/24 14:27:22;;;;;;;1.23;0.90;;;;;;;;;;5050801;28;20476;-81
2023/04/24 14:29:48;;;;;;;2.37;0.90;;;;;;;;;;5033169;28;20393;-81
2023/04/24 14:32:14;;;;;;;2.28;0.90;;;;;;;;;;5033467;28;20413;-81
2023/04/24 14:34:41;;;;;;;1.40;0.90;;;;;;;;;;5050976;28;20386;-81
2023/04/24 14:37:07;;;;;;;1.40;0.90;;;;;;;;;;5051031;28;20385;-81
2023/04/24 14:39:33;;;;;;;1.60;0.90;;;;;;;;;;5032905;28;20421;-81
2023/04/24 14:42:01;;;;;;;2.33;0.88;;;;;;;;;;5051076;28;20389;-81